createdAt,value
2023-03-26T00:01:25.183Z,9.82
2023-03-26T00:03:54.874Z,9.73
2023-03-26T00:06:25.045Z,7.55
2023-03-26T00:08:53.150Z,8.75
2023-03-26T00:11:22.094Z,8.90
2023-03-26T00:13:49.466Z,8.43
2023-03-26T00:16:18.684Z,9.93
2023-03-26T00:18:46.468Z,7.95
2023-03-26T00:21:17.319Z,7.78
2023-03-26T00:23:44.944Z,10.13
2023-03-26T00:26:12.047Z,7.03
2023-03-26T00:28:41.570Z,8.95
2023-03-26T00:31:14.484Z,9.02
2023-03-26T00:33:42.138Z,8.65
2023-03-26T00:36:12.143Z,8.30
2023-03-26T00:38:39.499Z,9.38
2023-03-26T00:41:17.779Z,8.00
2023-03-26T00:43:48.966Z,9.43
2023-03-26T00:46:17.671Z,7.15
2023-03-26T00:48:46.054Z,8.25
2023-03-26T00:51:18.710Z,6.57
2023-03-26T00:53:47.561Z,5.95
2023-03-26T00:56:14.853Z,9.25
2023-03-26T00:58:42.187Z,6.72
2023-03-26T01:04:06.836Z,6.97
2023-03-26T01:06:39.107Z,7.80
2023-03-26T01:09:17.382Z,7.43
2023-03-26T01:11:45.075Z,9.13
2023-03-26T01:14:21.435Z,6.70
2023-03-26T01:17:00.475Z,7.15
2023-03-26T01:19:48.383Z,6.07
2023-03-26T01:22:21.090Z,6.88
2023-03-26T01:24:53.851Z,7.40
2023-03-26T01:27:41.183Z,6.05
2023-03-26T01:33:14.402Z,7.85
2023-03-26T01:36:09.453Z,9.10
2023-03-26T01:38:40.410Z,7.60
2023-03-26T01:41:29.029Z,7.30
2023-03-26T01:44:08.210Z,7.22
2023-03-26T01:46:38.116Z,4.90
2023-03-26T01:49:06.177Z,5.57
2023-03-26T01:51:35.623Z,4.97
2023-03-26T01:54:06.018Z,5.82
2023-03-26T01:57:11.681Z,6.35
2023-03-26T02:00:12.276Z,6.82
2023-03-26T02:03:02.019Z,11.23
2023-03-26T02:05:39.323Z,10.77
2023-03-26T02:08:16.842Z,8.38
2023-03-26T02:10:47.885Z,9.43
2023-03-26T02:13:15.142Z,8.00
2023-03-26T02:16:04.806Z,7.53
2023-03-26T02:18:39.089Z,8.95
2023-03-26T02:21:12.521Z,7.47
2023-03-26T02:23:47.149Z,9.32
2023-03-26T02:26:16.834Z,9.38
2023-03-26T02:28:43.686Z,7.28
2023-03-26T02:31:11.218Z,11.05
2023-03-26T02:33:38.181Z,9.88
2023-03-26T02:36:06.200Z,10.10
2023-03-26T02:38:35.322Z,7.75
2023-03-26T02:41:05.181Z,9.38
2023-03-26T02:43:31.965Z,10.85
2023-03-26T02:45:58.971Z,10.00
2023-03-26T02:48:26.388Z,12.40
2023-03-26T02:50:54.787Z,9.18
2023-03-26T02:53:24.331Z,11.75
2023-03-26T02:55:51.235Z,8.48
2023-03-26T02:58:18.077Z,12.45
2023-03-26T03:00:46.999Z,8.20
2023-03-26T03:03:17.348Z,10.43
2023-03-26T03:05:48.614Z,9.48
2023-03-26T03:08:18.510Z,11.63
2023-03-26T03:11:09.165Z,10.80
2023-03-26T03:13:36.090Z,8.30
2023-03-26T03:16:03.173Z,7.10
2023-03-26T03:18:30.016Z,6.70
2023-03-26T03:20:57.150Z,5.85
2023-03-26T03:23:24.293Z,7.32
2023-03-26T03:25:52.978Z,8.27
2023-03-26T03:28:20.259Z,11.50
2023-03-26T03:30:47.238Z,7.65
2023-03-26T03:33:14.148Z,9.38
2023-03-26T03:35:41.969Z,11.38
2023-03-26T03:38:10.387Z,14.35
2023-03-26T03:40:37.247Z,13.68
2023-03-26T03:43:04.041Z,14.82
2023-03-26T03:45:31.009Z,10.35
2023-03-26T03:47:57.877Z,15.68
2023-03-26T03:50:25.315Z,13.38
2023-03-26T03:52:52.112Z,12.13
2023-03-26T03:55:19.419Z,11.93
2023-03-26T03:57:46.899Z,14.18
2023-03-26T04:00:14.936Z,10.35
2023-03-26T04:02:43.262Z,11.23
2023-03-26T04:05:11.779Z,9.88
2023-03-26T04:07:39.020Z,8.75
2023-03-26T04:10:07.758Z,9.90
2023-03-26T04:12:34.668Z,8.23
2023-03-26T04:15:01.880Z,7.45
2023-03-26T04:17:30.721Z,7.30
2023-03-26T04:19:57.890Z,15.43
2023-03-26T04:22:34.558Z,10.10
2023-03-26T04:27:34.707Z,9.07
2023-03-26T04:30:02.167Z,10.73
2023-03-26T04:32:34.282Z,14.85
2023-03-26T04:35:04.247Z,14.20
2023-03-26T04:37:40.011Z,12.48
2023-03-26T04:40:17.401Z,11.53
2023-03-26T04:42:47.275Z,10.50
2023-03-26T04:45:17.702Z,13.45
2023-03-26T04:47:46.554Z,10.00
2023-03-26T04:50:13.698Z,11.93
2023-03-26T04:52:42.506Z,13.57
2023-03-26T04:55:23.307Z,17.08
2023-03-26T04:57:55.518Z,14.90
2023-03-26T05:00:22.724Z,11.70
2023-03-26T05:02:56.273Z,18.13
2023-03-26T05:05:24.384Z,17.98
2023-03-26T05:07:51.288Z,19.05
2023-03-26T05:10:20.804Z,25.20
2023-03-26T05:12:48.199Z,19.52
2023-03-26T05:15:16.183Z,26.30
2023-03-26T05:17:43.451Z,19.27
2023-03-26T05:20:20.856Z,19.48
2023-03-26T05:22:49.724Z,14.93
2023-03-26T05:25:17.701Z,14.23
2023-03-26T05:27:45.724Z,14.90
2023-03-26T05:30:20.492Z,13.77
2023-03-26T05:32:49.382Z,11.45
2023-03-26T05:35:19.792Z,11.52
2023-03-26T05:37:49.755Z,10.63
2023-03-26T05:40:17.368Z,7.60
2023-03-26T05:42:45.668Z,10.70
2023-03-26T05:45:14.203Z,9.35
2023-03-26T05:47:41.336Z,7.60
2023-03-26T05:50:09.340Z,10.48
2023-03-26T05:52:36.409Z,4.90
2023-03-26T05:55:03.997Z,6.43
2023-03-26T05:57:31.702Z,6.25
2023-03-26T05:59:58.628Z,6.90
2023-03-26T06:02:25.754Z,7.13
2023-03-26T06:04:52.773Z,6.53
2023-03-26T06:07:20.001Z,6.43
2023-03-26T06:09:46.933Z,6.63
2023-03-26T06:12:14.342Z,5.07
2023-03-26T06:14:43.122Z,8.40
2023-03-26T06:17:10.950Z,16.38
2023-03-26T06:19:38.085Z,8.60
2023-03-26T06:22:05.108Z,5.43
2023-03-26T06:24:32.546Z,6.55
2023-03-26T06:26:59.454Z,5.05
2023-03-26T06:29:26.466Z,3.45
2023-03-26T06:31:53.272Z,3.05
2023-03-26T06:34:20.064Z,4.10
2023-03-26T06:36:48.909Z,4.10
2023-03-26T06:39:16.317Z,3.58
2023-03-26T06:41:43.144Z,3.40
2023-03-26T06:44:11.437Z,4.00
2023-03-26T06:46:38.508Z,3.53
2023-03-26T06:49:05.641Z,3.75
2023-03-26T06:51:32.639Z,3.42
2023-03-26T06:53:59.432Z,3.85
2023-03-26T06:56:26.320Z,2.83
2023-03-26T06:58:53.197Z,3.88
2023-03-26T07:01:20.034Z,3.92
2023-03-26T07:03:47.016Z,3.67
2023-03-26T07:06:13.904Z,3.13
2023-03-26T07:08:40.996Z,4.80
2023-03-26T07:11:08.066Z,2.47
2023-03-26T07:13:34.944Z,3.97
2023-03-26T07:16:01.773Z,3.22
2023-03-26T07:18:28.689Z,3.03
2023-03-26T07:20:56.150Z,3.88
2023-03-26T07:23:23.442Z,2.78
2023-03-26T07:25:50.553Z,2.40
2023-03-26T07:29:04.710Z,3.63
2023-03-26T07:31:48.073Z,2.28
2023-03-26T07:34:39.693Z,4.85
2023-03-26T07:37:27.572Z,1.77
2023-03-26T07:39:54.368Z,3.63
2023-03-26T07:42:43.576Z,1.98
2023-03-26T07:45:17.640Z,5.05
2023-03-26T07:47:46.277Z,2.38
2023-03-26T07:50:18.998Z,6.97
2023-03-26T07:52:46.769Z,3.97
2023-03-26T07:55:15.508Z,12.10
2023-03-26T07:58:33.114Z,2.10
2023-03-26T08:01:10.580Z,5.90
2023-03-26T08:04:00.843Z,3.05
2023-03-26T08:06:55.476Z,2.08
2023-03-26T08:09:35.219Z,2.63
2023-03-26T08:12:24.918Z,1.20
2023-03-26T08:15:12.947Z,2.47
2023-03-26T08:17:49.309Z,1.77
2023-03-26T08:20:45.821Z,3.95
2023-03-26T08:23:24.861Z,1.25
2023-03-26T08:26:02.655Z,2.08
2023-03-26T08:28:55.771Z,2.40
2023-03-26T08:31:35.192Z,2.95
2023-03-26T08:34:02.382Z,2.95
2023-03-26T08:36:29.673Z,2.08
2023-03-26T08:38:57.761Z,4.22
2023-03-26T08:42:01.655Z,3.10
2023-03-26T08:44:51.604Z,1.25
2023-03-26T08:47:45.163Z,2.33
2023-03-26T08:50:48.769Z,1.77
2023-03-26T08:53:24.484Z,1.20
2023-03-26T08:56:03.411Z,5.33
2023-03-26T08:58:42.183Z,3.13
2023-03-26T09:01:27.655Z,2.42
2023-03-26T09:04:31.882Z,3.45
2023-03-26T09:07:14.864Z,3.35
2023-03-26T09:09:55.124Z,3.00
2023-03-26T09:12:52.610Z,3.05
2023-03-26T09:18:38.628Z,3.30
2023-03-26T09:21:43.181Z,2.03
2023-03-26T09:24:27.906Z,1.75
2023-03-26T09:27:11.079Z,1.60
2023-03-26T09:30:17.805Z,3.67
2023-03-26T09:33:18.522Z,3.08
2023-03-26T09:36:21.899Z,3.40
2023-03-26T09:38:51.502Z,2.97
2023-03-26T09:41:41.502Z,4.60
2023-03-26T09:44:32.312Z,17.65
2023-03-26T09:47:24.551Z,4.82
2023-03-26T09:50:19.928Z,3.45
2023-03-26T09:53:05.689Z,2.03
2023-03-26T09:55:45.040Z,3.10
2023-03-26T09:58:31.467Z,1.65
2023-03-26T10:01:12.624Z,2.40
2023-03-26T10:04:13.280Z,1.50
2023-03-26T10:06:56.831Z,1.77
2023-03-26T10:09:45.619Z,1.05
2023-03-26T10:12:33.844Z,2.78
2023-03-26T10:15:19.012Z,2.35
2023-03-26T10:18:36.282Z,1.13
2023-03-26T10:21:27.486Z,1.88
2023-03-26T10:24:12.392Z,1.33
2023-03-26T10:27:09.134Z,1.88
2023-03-26T10:30:14.996Z,3.55
2023-03-26T10:33:02.761Z,2.63
2023-03-26T10:35:53.044Z,1.73
2023-03-26T10:38:53.829Z,2.33
2023-03-26T10:41:51.519Z,1.75
2023-03-26T10:44:36.564Z,4.55
2023-03-26T10:47:15.718Z,4.80
2023-03-26T10:50:00.442Z,1.75
2023-03-26T10:53:10.449Z,3.22
2023-03-26T10:55:46.888Z,2.30
2023-03-26T11:01:11.965Z,5.43
2023-03-26T11:03:56.711Z,3.65
2023-03-26T11:06:42.430Z,2.40
2023-03-26T11:09:24.311Z,5.68
2023-03-26T11:11:56.516Z,4.15
2023-03-26T11:14:47.717Z,2.45
2023-03-26T11:18:07.286Z,6.72
2023-03-26T11:21:18.904Z,2.00
2023-03-26T11:24:08.766Z,1.83
2023-03-26T11:26:56.213Z,1.80
2023-03-26T11:29:33.798Z,2.33
2023-03-26T11:32:12.285Z,2.95
2023-03-26T11:34:46.282Z,5.90
2023-03-26T11:37:23.949Z,4.57
2023-03-26T11:39:56.480Z,2.72
2023-03-26T11:42:25.741Z,2.10
2023-03-26T11:44:57.538Z,3.45
2023-03-26T11:47:31.926Z,1.25
2023-03-26T11:50:02.408Z,2.35
2023-03-26T11:52:29.893Z,3.75
2023-03-26T11:54:58.689Z,11.82
2023-03-26T11:57:36.400Z,2.55
2023-03-26T12:00:18.130Z,6.05
2023-03-26T12:02:48.206Z,4.55
2023-03-26T12:05:26.664Z,1.92
2023-03-26T12:08:04.404Z,1.38
2023-03-26T12:10:39.561Z,2.38
2023-03-26T12:13:21.901Z,2.67
2023-03-26T12:15:49.651Z,1.38
2023-03-26T12:18:28.011Z,1.70
2023-03-26T12:21:09.395Z,2.28
2023-03-26T12:23:56.561Z,1.60
2023-03-26T12:26:49.060Z,7.13
2023-03-26T12:29:18.003Z,2.20
2023-03-26T12:32:03.222Z,2.00
2023-03-26T12:34:35.398Z,4.32
2023-03-26T12:37:04.892Z,1.05
2023-03-26T12:40:09.107Z,2.17
2023-03-26T12:44:49.665Z,2.00
2023-03-26T12:45:23.913Z,1.48
2023-03-26T12:48:01.640Z,0.90
2023-03-26T12:51:01.986Z,1.27
2023-03-26T12:53:51.586Z,1.17
2023-03-26T12:57:12.772Z,2.38
2023-03-26T12:59:51.771Z,1.02
2023-03-26T13:02:44.210Z,2.15
2023-03-26T13:05:39.994Z,1.83
2023-03-26T13:08:28.954Z,1.30
2023-03-26T13:11:18.591Z,3.78
2023-03-26T13:14:06.797Z,3.67
2023-03-26T13:16:56.955Z,1.73
2023-03-26T13:19:29.427Z,1.80
2023-03-26T13:22:25.984Z,4.63
2023-03-26T13:25:09.607Z,3.90
2023-03-26T13:27:55.327Z,6.43
2023-03-26T13:30:49.334Z,0.98
2023-03-26T13:33:23.127Z,2.00
2023-03-26T13:36:22.558Z,1.50
2023-03-26T13:39:12.325Z,1.40
2023-03-26T13:41:42.191Z,2.05
2023-03-26T13:44:17.973Z,1.85
2023-03-26T13:46:53.641Z,5.23
2023-03-26T13:50:00.718Z,3.03
2023-03-26T13:52:56.100Z,1.77
2023-03-26T13:55:34.315Z,9.32
2023-03-26T13:58:11.141Z,1.67
2023-03-26T14:01:05.598Z,1.23
2023-03-26T14:03:45.371Z,1.60
2023-03-26T14:06:54.176Z,2.10
2023-03-26T14:09:32.150Z,1.00
2023-03-26T14:12:23.291Z,1.27
2023-03-26T14:14:59.216Z,1.63
2023-03-26T14:17:42.964Z,2.72
2023-03-26T14:20:21.883Z,0.75
2023-03-26T14:22:54.587Z,1.20
2023-03-26T14:25:50.199Z,1.27
2023-03-26T14:28:36.516Z,1.70
2023-03-26T14:31:11.490Z,2.27
2023-03-26T14:34:07.547Z,1.10
2023-03-26T14:36:59.834Z,2.13
2023-03-26T14:39:37.652Z,2.83
2023-03-26T14:42:23.308Z,1.85
2023-03-26T14:45:05.617Z,3.80
2023-03-26T14:47:41.854Z,1.33
2023-03-26T14:50:31.569Z,4.35
2023-03-26T14:53:01.905Z,2.53
2023-03-26T14:55:40.901Z,1.65
2023-03-26T14:58:28.464Z,9.48
2023-03-26T15:01:19.851Z,5.93
2023-03-26T15:04:24.184Z,10.88
2023-03-26T15:07:03.293Z,5.25
2023-03-26T15:09:42.709Z,4.78
2023-03-26T15:12:21.372Z,4.75
2023-03-26T15:15:26.200Z,2.25
2023-03-26T15:18:06.369Z,3.15
2023-03-26T15:20:45.104Z,2.55
2023-03-26T15:23:49.144Z,4.70
2023-03-26T15:26:51.353Z,3.03
2023-03-26T15:29:40.139Z,3.40
2023-03-26T15:32:40.691Z,4.38
2023-03-26T15:35:41.535Z,6.60
2023-03-26T15:38:31.382Z,6.13
2023-03-26T15:40:58.150Z,8.25
2023-03-26T15:43:32.169Z,9.15
2023-03-26T15:46:11.027Z,13.88
2023-03-26T15:49:05.434Z,13.75
2023-03-26T15:52:07.354Z,7.50
2023-03-26T15:55:19.038Z,5.75
2023-03-26T15:57:57.088Z,8.13
2023-03-26T16:00:24.931Z,13.68
2023-03-26T16:03:13.010Z,7.72
2023-03-26T16:06:18.901Z,8.90
2023-03-26T16:09:08.142Z,4.85
2023-03-26T16:11:53.201Z,4.80
2023-03-26T16:14:35.339Z,6.90
2023-03-26T16:17:11.766Z,9.05
2023-03-26T16:19:41.238Z,8.98
2023-03-26T16:22:15.470Z,14.60
2023-03-26T16:24:49.269Z,6.43
2023-03-26T16:27:16.273Z,7.40
2023-03-26T16:30:01.538Z,6.97
2023-03-26T16:32:33.964Z,10.18
2023-03-26T16:35:18.640Z,9.55
2023-03-26T16:37:52.546Z,8.10
2023-03-26T16:40:22.732Z,8.27
2023-03-26T16:43:07.957Z,11.90
2023-03-26T16:45:50.526Z,13.05
2023-03-26T16:48:46.122Z,14.85
2023-03-26T16:51:17.294Z,13.00
2023-03-26T16:54:18.049Z,14.27
2023-03-26T16:57:07.018Z,18.50
2023-03-26T17:00:04.645Z,19.13
2023-03-26T17:02:46.514Z,19.23
2023-03-26T17:05:42.993Z,18.67
2023-03-26T17:08:35.520Z,21.02
2023-03-26T17:11:15.974Z,21.25
2023-03-26T17:14:01.223Z,17.85
2023-03-26T17:16:52.555Z,19.30
2023-03-26T17:19:56.443Z,19.00
2023-03-26T17:22:45.307Z,20.02
2023-03-26T17:25:25.201Z,21.38
2023-03-26T17:28:18.597Z,20.15
2023-03-26T17:31:24.200Z,20.83
2023-03-26T17:33:51.657Z,24.77
2023-03-26T17:36:41.349Z,21.77
2023-03-26T17:39:22.274Z,19.58
2023-03-26T17:41:50.690Z,14.63
2023-03-26T17:44:37.468Z,14.38
2023-03-26T17:47:13.404Z,17.10
2023-03-26T17:49:42.643Z,13.05
2023-03-26T17:52:21.531Z,17.58
2023-03-26T17:54:51.998Z,21.80
2023-03-26T17:57:42.987Z,21.33
2023-03-26T18:00:23.651Z,16.73
2023-03-26T18:02:56.455Z,17.23
2023-03-26T18:05:27.477Z,14.05
2023-03-26T18:08:00.299Z,13.70
2023-03-26T18:10:45.401Z,11.65
2023-03-26T18:13:18.169Z,11.57
2023-03-26T18:16:03.679Z,10.45
2023-03-26T18:18:41.219Z,10.85
2023-03-26T18:21:08.533Z,14.23
2023-03-26T18:23:44.319Z,10.77
2023-03-26T18:26:32.841Z,12.10
2023-03-26T18:29:37.212Z,12.48
2023-03-26T18:32:22.380Z,13.02
2023-03-26T18:35:20.905Z,11.93
2023-03-26T18:37:50.326Z,13.65
2023-03-26T18:40:20.326Z,11.68
2023-03-26T18:42:56.706Z,10.77
2023-03-26T18:45:23.420Z,10.38
2023-03-26T18:47:54.597Z,12.25
2023-03-26T18:50:27.393Z,10.35
2023-03-26T18:52:58.641Z,7.53
2023-03-26T18:55:30.974Z,8.40
2023-03-26T18:57:57.880Z,6.10
2023-03-26T19:00:30.460Z,6.18
2023-03-26T19:03:06.016Z,9.13
2023-03-26T19:05:36.716Z,7.50
2023-03-26T19:08:05.575Z,6.05
2023-03-26T19:10:33.444Z,6.03
2023-03-26T19:13:04.431Z,7.90
2023-03-26T19:15:34.658Z,7.47
2023-03-26T19:18:10.714Z,4.63
2023-03-26T19:20:44.214Z,7.38
2023-03-26T19:23:17.867Z,5.85
2023-03-26T19:25:48.791Z,5.63
2023-03-26T19:28:28.190Z,5.60
2023-03-26T19:31:07.159Z,5.68
2023-03-26T19:33:39.939Z,7.28
2023-03-26T19:36:12.859Z,6.70
2023-03-26T19:38:49.099Z,6.60
2023-03-26T19:41:22.877Z,7.50
2023-03-26T19:43:59.063Z,8.48
2023-03-26T19:46:28.503Z,6.35
2023-03-26T19:48:58.140Z,8.55
2023-03-26T19:51:34.572Z,8.20
2023-03-26T19:54:04.422Z,12.02
2023-03-26T19:56:31.722Z,10.45
2023-03-26T19:58:59.388Z,20.02
2023-03-26T20:01:28.738Z,22.75
2023-03-26T20:03:59.036Z,35.50
2023-03-26T20:06:41.804Z,29.40
2023-03-26T20:09:11.910Z,39.33
2023-03-26T20:11:39.926Z,48.83
2023-03-26T20:14:20.030Z,37.75
2023-03-26T20:16:47.051Z,42.15
2023-03-26T20:19:15.190Z,35.72
2023-03-26T20:21:42.822Z,35.53
2023-03-26T20:24:15.931Z,33.00
2023-03-26T20:26:43.875Z,32.42
2023-03-26T20:29:12.219Z,36.25
2023-03-26T20:31:41.942Z,31.83
2023-03-26T20:34:23.687Z,33.40
2023-03-26T20:36:56.140Z,27.52
2023-03-26T20:39:24.814Z,27.42
2023-03-26T20:41:53.348Z,29.90
2023-03-26T20:44:22.065Z,28.80
2023-03-26T20:46:50.197Z,33.53
2023-03-26T20:49:18.186Z,29.25
2023-03-26T20:51:47.023Z,29.27
2023-03-26T20:54:17.796Z,26.17
2023-03-26T20:56:49.450Z,23.70
2023-03-26T20:59:22.594Z,27.25
2023-03-26T21:01:50.601Z,17.25
2023-03-26T21:04:21.627Z,24.73
2023-03-26T21:06:49.408Z,20.42
2023-03-26T21:09:18.964Z,18.95
2023-03-26T21:12:01.033Z,19.80
2023-03-26T21:14:40.431Z,19.92
2023-03-26T21:17:14.886Z,23.63
2023-03-26T21:19:42.719Z,26.45
2023-03-26T21:22:28.952Z,41.75
2023-03-26T21:25:03.513Z,46.27
2023-03-26T21:28:11.420Z,44.25
2023-03-26T21:30:39.990Z,38.67
2023-03-26T21:33:07.362Z,52.05
2023-03-26T21:35:34.946Z,41.95
2023-03-26T21:38:04.663Z,43.17
2023-03-26T21:40:31.896Z,45.45
2023-03-26T21:42:59.038Z,46.15
2023-03-26T21:45:26.820Z,50.78
2023-03-26T21:47:54.452Z,49.25
2023-03-26T21:50:23.712Z,48.95
2023-03-26T21:52:51.976Z,47.33
2023-03-26T21:55:23.581Z,53.47
2023-03-26T21:58:05.160Z,43.55
2023-03-26T22:01:07.717Z,41.53
2023-03-26T22:04:13.458Z,38.30
2023-03-26T22:06:50.992Z,35.17
2023-03-26T22:09:23.342Z,32.05
2023-03-26T22:11:53.342Z,33.00
2023-03-26T22:14:20.811Z,34.78
2023-03-26T22:16:47.866Z,26.58
2023-03-26T22:19:14.871Z,23.42
2023-03-26T22:21:41.678Z,21.30
2023-03-26T22:24:09.468Z,25.48
2023-03-26T22:26:37.596Z,29.40
2023-03-26T22:29:05.609Z,29.33
2023-03-26T22:31:33.014Z,22.50
2023-03-26T22:34:00.129Z,18.52
2023-03-26T22:36:27.535Z,16.38
2023-03-26T22:38:54.827Z,14.55
2023-03-26T22:41:22.882Z,16.35
2023-03-26T22:43:52.241Z,17.60
2023-03-26T22:46:19.631Z,18.35
2023-03-26T22:48:48.414Z,17.92
2023-03-26T22:51:18.965Z,15.23
2023-03-26T22:53:46.122Z,17.13
2023-03-26T22:56:14.454Z,15.32
2023-03-26T22:58:42.371Z,14.38
2023-03-26T23:01:12.447Z,13.45
2023-03-26T23:03:40.332Z,14.23
2023-03-26T23:06:10.513Z,14.90
2023-03-26T23:08:38.289Z,15.65
2023-03-26T23:11:10.603Z,13.55
2023-03-26T23:13:37.594Z,12.73
2023-03-26T23:16:05.633Z,13.93
2023-03-26T23:18:33.341Z,12.13
2023-03-26T23:21:00.271Z,12.57
2023-03-26T23:23:30.138Z,11.75
2023-03-26T23:25:59.206Z,14.55
2023-03-26T23:28:26.784Z,11.68
2023-03-26T23:30:55.102Z,13.80
2023-03-26T23:33:24.368Z,13.07
2023-03-26T23:36:00.016Z,15.57
2023-03-26T23:38:43.640Z,17.63
2023-03-26T23:41:15.424Z,15.05
2023-03-26T23:43:53.754Z,15.15
2023-03-26T23:46:24.874Z,18.40
2023-03-26T23:48:52.500Z,16.23
2023-03-26T23:51:20.587Z,13.80
2023-03-26T23:53:49.434Z,16.92
2023-03-26T23:56:16.575Z,16.40
2023-03-26T23:58:43.882Z,14.15
